Cranberry, North Carolina
Current Conditions -  °F | °C
As of 5:55 AM on Friday 19 Dec 2014 (Local Time) from KTNB Reporting Station
Broken Clouds Broken Clouds  
Wind Chill: -4°   Ceiling: 2700
Heat Index:   Visibility: 10mi
Dew Point: -7°   Wind: 8mph
Humidity: 58%   Direction: 320°NW
Pressure: 30.07"   Gusts: NA
Location:  36.1731°N, 81.9572°W
Report Text: KTNB 191055Z AUTO 32007KT 280V340 10SM BKN027 BKN035 00/M07 A3007 RMK AO2 T00001073
Loading
Personal Weather Stations






























Interactive Weather Map New forecast layout! Learn more

10-Day Weather Forecast

Advertisements
Track Severe Weather on mobile